sensor_id;sensor_type;location;lat;lon;timestamp;pressure;altitude;pressure_sealevel;temperature;humidity
37848;BME280;23688;33.130;-117.188;2023-05-24T00:01:48;99378.09;;;15.40;100.00
37848;BME280;23688;33.130;-117.188;2023-05-24T00:04:15;99379.25;;;15.55;100.00
37848;BME280;23688;33.130;-117.188;2023-05-24T00:06:41;99376.84;;;15.67;100.00
37848;BME280;23688;33.130;-117.188;2023-05-24T00:09:09;99373.66;;;15.80;100.00
37848;BME280;23688;33.130;-117.188;2023-05-24T00:11:37;99369.47;;;15.92;100.00
37848;BME280;23688;33.130;-117.188;2023-05-24T00:14:03;99358.78;;;15.79;100.00
37848;BME280;23688;33.130;-117.188;2023-05-24T00:16:30;99359.41;;;15.68;100.00
37848;BME280;23688;33.130;-117.188;2023-05-24T00:18:56;99356.22;;;15.81;100.00
37848;BME280;23688;33.130;-117.188;2023-05-24T00:21:24;99352.94;;;15.93;100.00
37848;BME280;23688;33.130;-117.188;2023-05-24T00:23:50;99362.66;;;16.00;100.00
37848;BME280;23688;33.130;-117.188;2023-05-24T00:26:17;99349.50;;;15.97;100.00
37848;BME280;23688;33.130;-117.188;2023-05-24T00:28:43;99344.16;;;15.91;100.00
37848;BME280;23688;33.130;-117.188;2023-05-24T00:31:09;99356.50;;;15.98;100.00
37848;BME280;23688;33.130;-117.188;2023-05-24T00:33:35;99353.09;;;16.03;100.00
37848;BME280;23688;33.130;-117.188;2023-05-24T00:36:02;99344.25;;;15.95;100.00
37848;BME280;23688;33.130;-117.188;2023-05-24T00:38:28;99351.00;;;15.82;100.00
37848;BME280;23688;33.130;-117.188;2023-05-24T00:40:55;99327.50;;;15.86;100.00
37848;BME280;23688;33.130;-117.188;2023-05-24T00:43:22;99341.72;;;16.01;100.00
37848;BME280;23688;33.130;-117.188;2023-05-24T00:46:13;99346.13;;;16.04;100.00
37848;BME280;23688;33.130;-117.188;2023-05-24T00:48:41;99336.53;;;16.03;100.00
37848;BME280;23688;33.130;-117.188;2023-05-24T00:51:08;99336.41;;;15.97;100.00
37848;BME280;23688;33.130;-117.188;2023-05-24T00:53:35;99339.00;;;15.95;100.00
37848;BME280;23688;33.130;-117.188;2023-05-24T00:56:02;99345.03;;;15.91;100.00
37848;BME280;23688;33.130;-117.188;2023-05-24T00:58:30;99343.47;;;16.01;100.00
37848;BME280;23688;33.130;-117.188;2023-05-24T01:00:59;99332.19;;;16.05;100.00
37848;BME280;23688;33.130;-117.188;2023-05-24T01:03:26;99319.94;;;16.04;100.00
37848;BME280;23688;33.130;-117.188;2023-05-24T01:05:57;99333.03;;;16.04;100.00
37848;BME280;23688;33.130;-117.188;2023-05-24T01:08:56;99339.13;;;16.03;100.00
37848;BME280;23688;33.130;-117.188;2023-05-24T01:17:18;99335.66;;;16.04;100.00
37848;BME280;23688;33.130;-117.188;2023-05-24T01:20:01;99315.53;;;16.01;100.00
37848;BME280;23688;33.130;-117.188;2023-05-24T01:25:06;99322.00;;;15.72;100.00
37848;BME280;23688;33.130;-117.188;2023-05-24T01:27:35;99323.50;;;15.59;100.00
37848;BME280;23688;33.130;-117.188;2023-05-24T01:30:02;99326.41;;;15.73;100.00
37848;BME280;23688;33.130;-117.188;2023-05-24T01:32:30;99320.84;;;15.57;100.00
37848;BME280;23688;33.130;-117.188;2023-05-24T01:34:57;99325.84;;;15.45;100.00
37848;BME280;23688;33.130;-117.188;2023-05-24T01:37:23;99323.91;;;15.35;100.00
37848;BME280;23688;33.130;-117.188;2023-05-24T01:39:50;99320.84;;;15.57;100.00
37848;BME280;23688;33.130;-117.188;2023-05-24T01:45:24;99321.22;;;15.77;100.00
37848;BME280;23688;33.130;-117.188;2023-05-24T01:53:20;99320.97;;;15.63;100.00
37848;BME280;23688;33.130;-117.188;2023-05-24T01:55:48;99319.44;;;15.73;100.00
37848;BME280;23688;33.130;-117.188;2023-05-24T01:58:18;99314.59;;;15.51;100.00
37848;BME280;23688;33.130;-117.188;2023-05-24T02:00:46;99314.78;;;15.60;100.00
37848;BME280;23688;33.130;-117.188;2023-05-24T02:03:13;99311.91;;;15.45;100.00
37848;BME280;23688;33.130;-117.188;2023-05-24T02:05:40;99306.63;;;15.41;100.00
37848;BME280;23688;33.130;-117.188;2023-05-24T02:08:09;99319.13;;;15.14;100.00
37848;BME280;23688;33.130;-117.188;2023-05-24T02:10:36;99329.50;;;15.09;100.00
37848;BME280;23688;33.130;-117.188;2023-05-24T02:13:04;99308.78;;;14.76;100.00
37848;BME280;23688;33.130;-117.188;2023-05-24T02:15:31;99319.34;;;14.82;100.00
37848;BME280;23688;33.130;-117.188;2023-05-24T02:17:58;99328.81;;;14.75;100.00
37848;BME280;23688;33.130;-117.188;2023-05-24T02:20:27;99322.47;;;14.64;100.00
37848;BME280;23688;33.130;-117.188;2023-05-24T02:22:56;99332.81;;;14.60;100.00
37848;BME280;23688;33.130;-117.188;2023-05-24T02:25:23;99348.47;;;14.60;100.00
37848;BME280;23688;33.130;-117.188;2023-05-24T02:27:49;99329.88;;;14.47;100.00
37848;BME280;23688;33.130;-117.188;2023-05-24T02:30:16;99348.03;;;14.41;100.00
37848;BME280;23688;33.130;-117.188;2023-05-24T02:32:43;99336.56;;;14.36;100.00
37848;BME280;23688;33.130;-117.188;2023-05-24T02:35:09;99333.56;;;14.54;100.00
37848;BME280;23688;33.130;-117.188;2023-05-24T02:37:36;99345.31;;;14.73;100.00
37848;BME280;23688;33.130;-117.188;2023-05-24T02:40:02;99334.00;;;14.74;100.00
37848;BME280;23688;33.130;-117.188;2023-05-24T02:42:29;99343.94;;;14.90;100.00
37848;BME280;23688;33.130;-117.188;2023-05-24T02:44:55;99348.56;;;15.04;100.00
37848;BME280;23688;33.130;-117.188;2023-05-24T02:47:21;99341.69;;;15.09;100.00
37848;BME280;23688;33.130;-117.188;2023-05-24T02:49:48;99340.75;;;15.05;100.00
37848;BME280;23688;33.130;-117.188;2023-05-24T02:52:14;99345.66;;;14.90;100.00
37848;BME280;23688;33.130;-117.188;2023-05-24T02:54:46;99353.84;;;15.07;100.00
37848;BME280;23688;33.130;-117.188;2023-05-24T02:57:12;99337.22;;;15.03;100.00
37848;BME280;23688;33.130;-117.188;2023-05-24T02:59:39;99357.94;;;14.92;100.00
37848;BME280;23688;33.130;-117.188;2023-05-24T03:02:05;99351.69;;;14.86;100.00
37848;BME280;23688;33.130;-117.188;2023-05-24T03:04:31;99353.84;;;14.66;100.00
37848;BME280;23688;33.130;-117.188;2023-05-24T03:06:58;99344.19;;;14.62;100.00
37848;BME280;23688;33.130;-117.188;2023-05-24T03:09:24;99357.41;;;14.69;100.00
37848;BME280;23688;33.130;-117.188;2023-05-24T03:11:50;99352.72;;;14.54;100.00
37848;BME280;23688;33.130;-117.188;2023-05-24T03:14:19;99350.78;;;14.47;100.00
37848;BME280;23688;33.130;-117.188;2023-05-24T03:16:48;99361.88;;;14.39;100.00
37848;BME280;23688;33.130;-117.188;2023-05-24T03:19:15;99359.69;;;14.55;100.00
37848;BME280;23688;33.130;-117.188;2023-05-24T03:21:42;99358.63;;;14.47;100.00
37848;BME280;23688;33.130;-117.188;2023-05-24T03:24:09;99358.19;;;14.29;100.00
37848;BME280;23688;33.130;-117.188;2023-05-24T03:26:39;99363.63;;;14.38;100.00
37848;BME280;23688;33.130;-117.188;2023-05-24T03:29:05;99348.91;;;14.05;100.00
37848;BME280;23688;33.130;-117.188;2023-05-24T03:31:31;99363.72;;;14.06;100.00
37848;BME280;23688;33.130;-117.188;2023-05-24T03:33:58;99363.44;;;13.96;100.00
37848;BME280;23688;33.130;-117.188;2023-05-24T03:36:25;99371.84;;;13.84;100.00
37848;BME280;23688;33.130;-117.188;2023-05-24T03:38:54;99381.47;;;13.86;100.00
37848;BME280;23688;33.130;-117.188;2023-05-24T03:41:22;99380.66;;;13.89;100.00
37848;BME280;23688;33.130;-117.188;2023-05-24T03:43:52;99364.19;;;13.90;100.00
37848;BME280;23688;33.130;-117.188;2023-05-24T03:46:18;99379.53;;;14.12;100.00
37848;BME280;23688;33.130;-117.188;2023-05-24T03:48:44;99381.34;;;14.15;100.00
37848;BME280;23688;33.130;-117.188;2023-05-24T03:51:11;99381.22;;;14.10;100.00
37848;BME280;23688;33.130;-117.188;2023-05-24T03:53:37;99385.06;;;14.25;100.00
37848;BME280;23688;33.130;-117.188;2023-05-24T03:56:03;99383.44;;;14.30;100.00
37848;BME280;23688;33.130;-117.188;2023-05-24T03:58:30;99385.31;;;14.34;100.00
37848;BME280;23688;33.130;-117.188;2023-05-24T04:00:56;99373.94;;;14.33;100.00
37848;BME280;23688;33.130;-117.188;2023-05-24T04:03:22;99377.38;;;14.31;100.00
37848;BME280;23688;33.130;-117.188;2023-05-24T04:05:50;99368.78;;;14.35;100.00
37848;BME280;23688;33.130;-117.188;2023-05-24T04:08:17;99377.16;;;14.57;100.00
37848;BME280;23688;33.130;-117.188;2023-05-24T04:10:43;99369.59;;;14.69;100.00
37848;BME280;23688;33.130;-117.188;2023-05-24T04:13:09;99385.41;;;14.75;100.00
37848;BME280;23688;33.130;-117.188;2023-05-24T04:15:36;99385.91;;;14.59;100.00
37848;BME280;23688;33.130;-117.188;2023-05-24T04:18:05;99391.16;;;14.59;100.00
37848;BME280;23688;33.130;-117.188;2023-05-24T04:20:31;99376.34;;;14.59;100.00
37848;BME280;23688;33.130;-117.188;2023-05-24T04:22:58;99391.50;;;14.74;100.00
37848;BME280;23688;33.130;-117.188;2023-05-24T04:25:24;99387.28;;;14.81;100.00
37848;BME280;23688;33.130;-117.188;2023-05-24T04:27:51;99392.53;;;14.81;100.00
37848;BME280;23688;33.130;-117.188;2023-05-24T04:30:20;99388.91;;;14.75;100.00
37848;BME280;23688;33.130;-117.188;2023-05-24T04:32:47;99396.44;;;14.62;100.00
37848;BME280;23688;33.130;-117.188;2023-05-24T04:35:13;99397.88;;;14.50;100.00
37848;BME280;23688;33.130;-117.188;2023-05-24T04:37:41;99399.97;;;14.64;100.00
37848;BME280;23688;33.130;-117.188;2023-05-24T04:40:08;99392.41;;;14.76;100.00
37848;BME280;23688;33.130;-117.188;2023-05-24T04:42:35;99393.44;;;14.84;100.00
37848;BME280;23688;33.130;-117.188;2023-05-24T04:45:02;99388.28;;;14.86;100.00
37848;BME280;23688;33.130;-117.188;2023-05-24T04:47:28;99401.00;;;14.70;100.00
37848;BME280;23688;33.130;-117.188;2023-05-24T04:49:55;99398.59;;;14.45;100.00
37848;BME280;23688;33.130;-117.188;2023-05-24T04:52:21;99394.19;;;14.42;100.00
37848;BME280;23688;33.130;-117.188;2023-05-24T04:54:48;99393.44;;;14.46;100.00
37848;BME280;23688;33.130;-117.188;2023-05-24T04:57:14;99384.81;;;14.50;100.00
37848;BME280;23688;33.130;-117.188;2023-05-24T04:59:41;99397.47;;;14.68;100.00
37848;BME280;23688;33.130;-117.188;2023-05-24T05:02:07;99396.72;;;14.74;100.00
37848;BME280;23688;33.130;-117.188;2023-05-24T05:04:33;99392.25;;;14.70;100.00
37848;BME280;23688;33.130;-117.188;2023-05-24T05:07:00;99395.66;;;14.66;100.00
37848;BME280;23688;33.130;-117.188;2023-05-24T05:09:28;99393.75;;;14.59;100.00
37848;BME280;23688;33.130;-117.188;2023-05-24T05:11:54;99388.75;;;14.69;100.00
37848;BME280;23688;33.130;-117.188;2023-05-24T05:14:20;99391.22;;;14.62;100.00
37848;BME280;23688;33.130;-117.188;2023-05-24T05:16:47;99403.22;;;14.53;100.00
37848;BME280;23688;33.130;-117.188;2023-05-24T05:19:14;99389.59;;;14.67;100.00
37848;BME280;23688;33.130;-117.188;2023-05-24T05:21:40;99396.66;;;14.72;100.00
37848;BME280;23688;33.130;-117.188;2023-05-24T05:24:07;99378.94;;;14.59;100.00
37848;BME280;23688;33.130;-117.188;2023-05-24T05:26:33;99380.81;;;14.65;100.00
37848;BME280;23688;33.130;-117.188;2023-05-24T05:29:01;99369.75;;;14.40;100.00
37848;BME280;23688;33.130;-117.188;2023-05-24T05:31:28;99381.25;;;14.48;100.00
37848;BME280;23688;33.130;-117.188;2023-05-24T05:33:57;99379.56;;;14.49;100.00
37848;BME280;23688;33.130;-117.188;2023-05-24T05:36:23;99376.47;;;14.29;100.00
37848;BME280;23688;33.130;-117.188;2023-05-24T05:38:49;99374.91;;;14.37;100.00
37848;BME280;23688;33.130;-117.188;2023-05-24T05:41:17;99390.81;;;14.46;100.00
37848;BME280;23688;33.130;-117.188;2023-05-24T05:43:43;99371.91;;;14.20;100.00
37848;BME280;23688;33.130;-117.188;2023-05-24T05:46:11;99382.53;;;14.28;100.00
37848;BME280;23688;33.130;-117.188;2023-05-24T05:48:40;99389.84;;;14.41;100.00
37848;BME280;23688;33.130;-117.188;2023-05-24T05:51:06;99386.09;;;14.31;100.00
37848;BME280;23688;33.130;-117.188;2023-05-24T05:53:33;99376.50;;;14.30;100.00
37848;BME280;23688;33.130;-117.188;2023-05-24T05:55:59;99396.03;;;14.46;100.00
37848;BME280;23688;33.130;-117.188;2023-05-24T05:58:27;99393.44;;;14.46;100.00
37848;BME280;23688;33.130;-117.188;2023-05-24T06:00:53;99381.03;;;14.38;100.00
37848;BME280;23688;33.130;-117.188;2023-05-24T06:03:19;99381.91;;;14.38;100.00
37848;BME280;23688;33.130;-117.188;2023-05-24T06:05:46;99381.69;;;14.29;100.00
37848;BME280;23688;33.130;-117.188;2023-05-24T06:08:12;99383.38;;;14.27;100.00
37848;BME280;23688;33.130;-117.188;2023-05-24T06:10:38;99382.63;;;14.32;100.00
37848;BME280;23688;33.130;-117.188;2023-05-24T06:13:05;99391.22;;;14.27;100.00
37848;BME280;23688;33.130;-117.188;2023-05-24T06:15:32;99387.91;;;14.34;100.00
37848;BME280;23688;33.130;-117.188;2023-05-24T06:17:59;99375.03;;;14.42;100.00
37848;BME280;23688;33.130;-117.188;2023-05-24T06:20:29;99379.56;;;14.49;100.00
37848;BME280;23688;33.130;-117.188;2023-05-24T06:22:56;99379.63;;;14.52;100.00
37848;BME280;23688;33.130;-117.188;2023-05-24T06:25:22;99391.81;;;14.53;100.00
37848;BME280;23688;33.130;-117.188;2023-05-24T06:27:49;99372.50;;;14.45;100.00
37848;BME280;23688;33.130;-117.188;2023-05-24T06:30:17;99387.13;;;14.38;100.00
37848;BME280;23688;33.130;-117.188;2023-05-24T06:32:43;99391.59;;;14.42;100.00
37848;BME280;23688;33.130;-117.188;2023-05-24T06:35:10;99381.69;;;14.29;100.00
37848;BME280;23688;33.130;-117.188;2023-05-24T06:37:36;99372.78;;;14.21;100.00
37848;BME280;23688;33.130;-117.188;2023-05-24T06:40:05;99389.00;;;14.09;100.00
37848;BME280;23688;33.130;-117.188;2023-05-24T06:42:32;99382.84;;;14.05;100.00
37848;BME280;23688;33.130;-117.188;2023-05-24T06:44:59;99377.63;;;14.07;100.00
37848;BME280;23688;33.130;-117.188;2023-05-24T06:47:25;99371.28;;;13.97;100.00
37848;BME280;23688;33.130;-117.188;2023-05-24T06:49:51;99377.50;;;14.01;100.00
37848;BME280;23688;33.130;-117.188;2023-05-24T06:52:18;99369.50;;;13.95;100.00
37848;BME280;23688;33.130;-117.188;2023-05-24T06:54:44;99363.75;;;14.08;100.00
37848;BME280;23688;33.130;-117.188;2023-05-24T06:57:11;99377.16;;;14.22;100.00
37848;BME280;23688;33.130;-117.188;2023-05-24T06:59:37;99372.78;;;14.21;100.00
37848;BME280;23688;33.130;-117.188;2023-05-24T07:02:03;99375.56;;;14.27;100.00
37848;BME280;23688;33.130;-117.188;2023-05-24T07:04:31;99363.31;;;14.24;100.00
37848;BME280;23688;33.130;-117.188;2023-05-24T07:06:58;99366.16;;;14.35;100.00
37848;BME280;23688;33.130;-117.188;2023-05-24T07:09:24;99371.44;;;14.38;100.00
37848;BME280;23688;33.130;-117.188;2023-05-24T07:11:52;99368.72;;;14.33;100.00
37848;BME280;23688;33.130;-117.188;2023-05-24T07:14:18;99372.44;;;14.43;100.00
37848;BME280;23688;33.130;-117.188;2023-05-24T07:16:44;99377.75;;;14.46;100.00
37848;BME280;23688;33.130;-117.188;2023-05-24T07:19:11;99368.59;;;14.27;100.00
37848;BME280;23688;33.130;-117.188;2023-05-24T07:21:38;99372.78;;;14.21;100.00
37848;BME280;23688;33.130;-117.188;2023-05-24T07:24:04;99372.53;;;14.11;100.00
37848;BME280;23688;33.130;-117.188;2023-05-24T07:26:31;99372.03;;;14.26;100.00
37848;BME280;23688;33.130;-117.188;2023-05-24T07:28:57;99366.81;;;14.26;100.00
37848;BME280;23688;33.130;-117.188;2023-05-24T07:31:24;99345.28;;;14.00;100.00
37848;BME280;23688;33.130;-117.188;2023-05-24T07:33:52;99356.09;;;14.16;100.00
37848;BME280;23688;33.130;-117.188;2023-05-24T07:36:18;99354.66;;;14.27;100.00
37848;BME280;23688;33.130;-117.188;2023-05-24T07:38:47;99358.25;;;14.32;100.00
37848;BME280;23688;33.130;-117.188;2023-05-24T07:41:13;99353.38;;;14.09;100.00
37848;BME280;23688;33.130;-117.188;2023-05-24T07:43:39;99347.25;;;14.09;100.00
37848;BME280;23688;33.130;-117.188;2023-05-24T07:46:06;99351.13;;;14.26;100.00
37848;BME280;23688;33.130;-117.188;2023-05-24T07:48:32;99360.81;;;14.29;100.00
37848;BME280;23688;33.130;-117.188;2023-05-24T07:50:59;99355.19;;;14.13;100.00
37848;BME280;23688;33.130;-117.188;2023-05-24T07:53:25;99345.56;;;14.11;100.00
37848;BME280;23688;33.130;-117.188;2023-05-24T07:55:54;99349.34;;;14.24;100.00
37848;BME280;23688;33.130;-117.188;2023-05-24T07:58:21;99343.34;;;14.28;100.00
37848;BME280;23688;33.130;-117.188;2023-05-24T08:00:47;99350.66;;;14.43;100.00
37848;BME280;23688;33.130;-117.188;2023-05-24T08:03:13;99334.06;;;14.41;100.00
37848;BME280;23688;33.130;-117.188;2023-05-24T08:05:40;99345.63;;;14.50;100.00
37848;BME280;23688;33.130;-117.188;2023-05-24T08:08:06;99340.44;;;14.52;100.00
37848;BME280;23688;33.130;-117.188;2023-05-24T08:10:33;99350.09;;;14.54;100.00
37848;BME280;23688;33.130;-117.188;2023-05-24T08:12:59;99347.34;;;14.50;100.00
37848;BME280;23688;33.130;-117.188;2023-05-24T08:15:25;99350.44;;;14.33;100.00
37848;BME280;23688;33.130;-117.188;2023-05-24T08:17:52;99338.66;;;14.13;100.00
37848;BME280;23688;33.130;-117.188;2023-05-24T08:20:18;99322.91;;;14.10;100.00
37848;BME280;23688;33.130;-117.188;2023-05-24T08:22:45;99314.41;;;14.19;100.00
37848;BME280;23688;33.130;-117.188;2023-05-24T08:25:13;99325.19;;;14.32;100.00
37848;BME280;23688;33.130;-117.188;2023-05-24T08:27:39;99311.94;;;14.25;100.00
37848;BME280;23688;33.130;-117.188;2023-05-24T08:30:07;99326.47;;;14.13;100.00
37848;BME280;23688;33.130;-117.188;2023-05-24T08:32:34;99312.19;;;13.99;100.00
37848;BME280;23688;33.130;-117.188;2023-05-24T08:35:00;99309.69;;;14.02;100.00
37848;BME280;23688;33.130;-117.188;2023-05-24T08:37:27;99314.59;;;13.90;100.00
37848;BME280;23688;33.130;-117.188;2023-05-24T08:39:55;99313.78;;;13.93;100.00
37848;BME280;23688;33.130;-117.188;2023-05-24T08:42:27;99301.63;;;13.95;100.00
37848;BME280;23688;33.130;-117.188;2023-05-24T08:45:13;99313.75;;;13.91;100.00
37848;BME280;23688;33.130;-117.188;2023-05-24T08:47:40;99313.56;;;13.85;100.00
37848;BME280;23688;33.130;-117.188;2023-05-24T08:50:07;99314.50;;;13.87;100.00
37848;BME280;23688;33.130;-117.188;2023-05-24T08:52:35;99304.19;;;13.91;100.00
37848;BME280;23688;33.130;-117.188;2023-05-24T08:55:03;99305.16;;;13.97;100.00
37848;BME280;23688;33.130;-117.188;2023-05-24T08:57:32;99309.63;;;14.01;100.00
37848;BME280;23688;33.130;-117.188;2023-05-24T08:59:59;99311.88;;;13.87;100.00
37848;BME280;23688;33.130;-117.188;2023-05-24T09:02:26;99307.53;;;13.87;100.00
37848;BME280;23688;33.130;-117.188;2023-05-24T09:04:52;99311.75;;;13.81;100.00
37848;BME280;23688;33.130;-117.188;2023-05-24T09:07:21;99305.56;;;13.77;100.00
37848;BME280;23688;33.130;-117.188;2023-05-24T09:10:04;99304.19;;;13.91;100.00
37848;BME280;23688;33.130;-117.188;2023-05-24T09:12:31;99306.03;;;13.62;100.00
37848;BME280;23688;33.130;-117.188;2023-05-24T09:14:58;99309.84;;;13.75;100.00
37848;BME280;23688;33.130;-117.188;2023-05-24T09:17:24;99312.81;;;13.89;100.00
37848;BME280;23688;33.130;-117.188;2023-05-24T09:19:52;99302.88;;;13.74;100.00
37848;BME280;23688;33.130;-117.188;2023-05-24T09:22:18;99322.22;;;13.82;100.00
37848;BME280;23688;33.130;-117.188;2023-05-24T09:24:51;99309.66;;;13.67;100.00
37848;BME280;23688;33.130;-117.188;2023-05-24T09:27:19;99324.06;;;13.86;100.00
37848;BME280;23688;33.130;-117.188;2023-05-24T09:29:49;99322.19;;;13.81;100.00
37848;BME280;23688;33.130;-117.188;2023-05-24T09:32:18;99323.63;;;13.69;100.00
37848;BME280;23688;33.130;-117.188;2023-05-24T09:34:48;99312.25;;;13.66;100.00
37848;BME280;23688;33.130;-117.188;2023-05-24T09:37:20;99330.38;;;13.61;100.00
37848;BME280;23688;33.130;-117.188;2023-05-24T09:39:49;99322.56;;;13.63;100.00
37848;BME280;23688;33.130;-117.188;2023-05-24T09:42:17;99321.69;;;13.62;100.00
37848;BME280;23688;33.130;-117.188;2023-05-24T09:44:47;99335.94;;;13.75;100.00
37848;BME280;23688;33.130;-117.188;2023-05-24T09:47:13;99332.56;;;13.79;100.00
37848;BME280;23688;33.130;-117.188;2023-05-24T09:49:40;99324.38;;;13.64;100.00
37848;BME280;23688;33.130;-117.188;2023-05-24T09:52:06;99326.72;;;13.55;100.00
37848;BME280;23688;33.130;-117.188;2023-05-24T09:54:33;99336.34;;;13.57;100.00
37848;BME280;23688;33.130;-117.188;2023-05-24T09:57:01;99327.44;;;13.49;100.00
37848;BME280;23688;33.130;-117.188;2023-05-24T09:59:32;99338.69;;;13.48;100.00
37848;BME280;23688;33.130;-117.188;2023-05-24T10:02:08;99338.25;;;13.31;100.00
37848;BME280;23688;33.130;-117.188;2023-05-24T10:04:41;99334.00;;;13.35;100.00
37848;BME280;23688;33.130;-117.188;2023-05-24T10:07:07;99340.31;;;13.43;100.00
37848;BME280;23688;33.130;-117.188;2023-05-24T10:09:34;99336.47;;;13.30;100.00
37848;BME280;23688;33.130;-117.188;2023-05-24T10:12:02;99346.56;;;13.49;100.00
37848;BME280;23688;33.130;-117.188;2023-05-24T10:14:34;99345.84;;;13.54;100.00
37848;BME280;23688;33.130;-117.188;2023-05-24T10:17:02;99340.03;;;13.32;100.00
37848;BME280;23688;33.130;-117.188;2023-05-24T10:19:31;99313.19;;;13.06;100.00
37848;BME280;23688;33.130;-117.188;2023-05-24T10:21:59;99337.88;;;13.19;100.00
37848;BME280;23688;33.130;-117.188;2023-05-24T10:24:32;99337.91;;;13.20;100.00
37848;BME280;23688;33.130;-117.188;2023-05-24T10:27:04;99345.97;;;13.28;100.00
37848;BME280;23688;33.130;-117.188;2023-05-24T10:30:04;99338.94;;;13.25;100.00
37848;BME280;23688;33.130;-117.188;2023-05-24T10:32:37;99338.22;;;13.30;100.00
37848;BME280;23688;33.130;-117.188;2023-05-24T10:35:05;99334.50;;;13.23;100.00
37848;BME280;23688;33.130;-117.188;2023-05-24T10:37:32;99340.53;;;13.20;100.00
37848;BME280;23688;33.130;-117.188;2023-05-24T10:39:59;99339.50;;;13.15;100.00
37848;BME280;23688;33.130;-117.188;2023-05-24T10:42:25;99343.44;;;13.30;100.00
37848;BME280;23688;33.130;-117.188;2023-05-24T10:44:55;99335.25;;;13.19;100.00
37848;BME280;23688;33.130;-117.188;2023-05-24T10:47:25;99343.19;;;13.22;100.00
37848;BME280;23688;33.130;-117.188;2023-05-24T10:49:56;99336.44;;;13.28;100.00
37848;BME280;23688;33.130;-117.188;2023-05-24T10:52:34;99333.28;;;13.40;100.00
37848;BME280;23688;33.130;-117.188;2023-05-24T10:55:06;99336.28;;;13.54;100.00
37848;BME280;23688;33.130;-117.188;2023-05-24T10:57:35;99338.13;;;13.58;100.00
37848;BME280;23688;33.130;-117.188;2023-05-24T11:03:00;99330.66;;;13.39;100.00
37848;BME280;23688;33.130;-117.188;2023-05-24T11:08:12;99318.28;;;13.32;100.00
37848;BME280;23688;33.130;-117.188;2023-05-24T11:10:39;99317.50;;;13.36;100.00
37848;BME280;23688;33.130;-117.188;2023-05-24T11:13:09;99318.69;;;13.47;100.00
37848;BME280;23688;33.130;-117.188;2023-05-24T11:15:35;99307.94;;;13.35;100.00
37848;BME280;23688;33.130;-117.188;2023-05-24T11:20:34;99305.91;;;13.26;100.00
37848;BME280;23688;33.130;-117.188;2023-05-24T11:23:10;99299.31;;;13.37;100.00
37848;BME280;23688;33.130;-117.188;2023-05-24T11:25:37;99314.31;;;13.46;100.00
37848;BME280;23688;33.130;-117.188;2023-05-24T11:28:09;99311.94;;;13.55;100.00
37848;BME280;23688;33.130;-117.188;2023-05-24T11:30:44;99306.25;;;13.70;100.00
37848;BME280;23688;33.130;-117.188;2023-05-24T11:33:17;99311.56;;;13.73;100.00
37848;BME280;23688;33.130;-117.188;2023-05-24T11:35:45;99315.25;;;13.81;100.00
37848;BME280;23688;33.130;-117.188;2023-05-24T11:38:13;99310.00;;;13.81;100.00
37848;BME280;23688;33.130;-117.188;2023-05-24T11:40:46;99309.16;;;13.81;100.00
37848;BME280;23688;33.130;-117.188;2023-05-24T11:43:17;99315.31;;;13.84;100.00
37848;BME280;23688;33.130;-117.188;2023-05-24T11:45:46;99303.94;;;13.81;100.00
37848;BME280;23688;33.130;-117.188;2023-05-24T11:48:14;99308.66;;;13.97;100.00
37848;BME280;23688;33.130;-117.188;2023-05-24T11:50:43;99298.22;;;13.97;100.00
37848;BME280;23688;33.130;-117.188;2023-05-24T11:53:14;99292.16;;;13.98;100.00
37848;BME280;23688;33.130;-117.188;2023-05-24T11:55:41;99307.97;;;14.04;100.00
37848;BME280;23688;33.130;-117.188;2023-05-24T11:58:27;99283.22;;;13.88;100.00
37848;BME280;23688;33.130;-117.188;2023-05-24T12:00:56;99316.59;;;14.00;100.00
37848;BME280;23688;33.130;-117.188;2023-05-24T12:03:23;99318.91;;;13.89;100.00
37848;BME280;23688;33.130;-117.188;2023-05-24T12:05:49;99306.66;;;13.87;100.00
37848;BME280;23688;33.130;-117.188;2023-05-24T12:08:16;99320.03;;;13.99;100.00
37848;BME280;23688;33.130;-117.188;2023-05-24T12:10:43;99316.53;;;13.99;100.00
37848;BME280;23688;33.130;-117.188;2023-05-24T12:13:20;99328.81;;;14.03;100.00
37848;BME280;23688;33.130;-117.188;2023-05-24T12:15:53;99319.34;;;14.06;100.00
37848;BME280;23688;33.130;-117.188;2023-05-24T12:18:21;99310.56;;;14.03;100.00
37848;BME280;23688;33.130;-117.188;2023-05-24T12:20:48;99326.34;;;14.09;100.00
37848;BME280;23688;33.130;-117.188;2023-05-24T12:23:17;99317.50;;;14.02;100.00
37848;BME280;23688;33.130;-117.188;2023-05-24T12:25:43;99327.03;;;14.02;100.00
37848;BME280;23688;33.130;-117.188;2023-05-24T12:28:11;99334.00;;;14.01;100.00
37848;BME280;23688;33.130;-117.188;2023-05-24T12:30:37;99330.50;;;14.01;100.00
37848;BME280;23688;33.130;-117.188;2023-05-24T12:33:09;99328.84;;;14.04;100.00
37848;BME280;23688;33.130;-117.188;2023-05-24T12:35:39;99336.50;;;13.97;100.00
37848;BME280;23688;33.130;-117.188;2023-05-24T12:38:08;99331.19;;;13.94;100.00
37848;BME280;23688;33.130;-117.188;2023-05-24T12:40:41;99313.25;;;13.71;100.00
37848;BME280;23688;33.130;-117.188;2023-05-24T12:43:09;99347.91;;;13.67;100.00
37848;BME280;23688;33.130;-117.188;2023-05-24T12:45:35;99345.69;;;13.49;100.00
37848;BME280;23688;33.130;-117.188;2023-05-24T12:48:01;99352.06;;;13.60;100.00
37848;BME280;23688;33.130;-117.188;2023-05-24T12:50:29;99352.97;;;13.61;100.00